首页
METAR-TAF:

METAR-TAF

机场 :

帕爾薩巴德, 伊朗

纬度: 39-36-13N, 经度: 47-52-53E, 海拔: 77米

当前天气观测

该预报发布于56分钟前的09:00 UTC
风速8节,风向东转东南
温度 6°C
湿度 81%
气压 1021 hPa
能见度10公里或以上
1500米以下无云,无积雨云

METAR: OITP 180900Z 12008KT CAVOK 06/03 Q1021

时间: 13:26 (09:56 UTC)


TAF: 丢失

超过4000个机场的气象观测和天气预报(METAR&TAF报告)。

可查询的气象台以黄色和红色小点在地图上表示。

将鼠标移到小点上方,可查看气象台名称。

然后点击查看天气观测和预报。

如需切换地图:点击带黑十字的绿色按钮放大地图;点击带横线的绿色按钮缩小地图;或者点击绿色箭头查看邻近地区的地图。


METAR-TAF: